createdAt,value
2023-05-05T00:02:10.029Z,69.10
2023-05-05T00:04:37.057Z,69.20
2023-05-05T00:07:04.078Z,69.40
2023-05-05T00:09:31.073Z,70.00
2023-05-05T00:11:58.145Z,70.00
2023-05-05T00:14:25.195Z,70.40
2023-05-05T00:16:52.461Z,70.80
2023-05-05T00:19:19.488Z,72.20
2023-05-05T00:21:46.480Z,71.90
2023-05-05T00:24:13.471Z,73.30
2023-05-05T00:26:40.587Z,73.00
2023-05-05T00:29:07.912Z,73.60
2023-05-05T00:31:35.095Z,73.90
2023-05-05T00:34:02.122Z,74.30
2023-05-05T00:36:29.070Z,74.90
2023-05-05T00:38:56.032Z,75.50
2023-05-05T00:41:23.066Z,75.80
2023-05-05T00:43:50.010Z,77.00
2023-05-05T00:46:26.830Z,76.80
2023-05-05T00:48:55.065Z,79.40
2023-05-05T00:51:22.876Z,77.80
2023-05-05T00:53:50.617Z,78.30
2023-05-05T00:56:21.977Z,78.50
2023-05-05T00:58:49.495Z,79.20
2023-05-05T01:01:17.957Z,79.20
2023-05-05T01:03:46.944Z,79.50
2023-05-05T01:06:38.802Z,80.00
2023-05-05T01:09:34.465Z,80.40
2023-05-05T01:13:17.469Z,81.60
2023-05-05T01:16:26.889Z,82.10
2023-05-05T01:19:26.598Z,81.00
2023-05-05T01:22:02.282Z,82.30
2023-05-05T01:25:21.368Z,81.40
2023-05-05T01:28:38.403Z,83.80
2023-05-05T01:31:35.154Z,82.80
2023-05-05T01:34:08.922Z,84.80
2023-05-05T01:36:47.521Z,83.00
2023-05-05T01:39:17.462Z,83.60
2023-05-05T01:41:50.959Z,84.80
2023-05-05T01:44:20.143Z,84.20
2023-05-05T01:46:50.456Z,84.10
2023-05-05T01:49:17.971Z,84.60
2023-05-05T01:51:48.956Z,84.80
2023-05-05T01:54:19.509Z,85.40
2023-05-05T01:56:49.214Z,85.10
2023-05-05T01:59:17.892Z,85.90
2023-05-05T02:01:47.624Z,85.60
2023-05-05T02:04:18.917Z,86.10
2023-05-05T02:06:51.612Z,86.20
2023-05-05T02:09:20.650Z,86.50
2023-05-05T02:11:48.476Z,87.80
2023-05-05T02:14:18.483Z,87.10
2023-05-05T02:16:47.100Z,87.60
2023-05-05T02:19:16.132Z,87.90
2023-05-05T02:21:43.261Z,88.30
2023-05-05T02:24:10.705Z,89.20
2023-05-05T02:26:45.983Z,90.00
2023-05-05T02:29:28.554Z,90.00
2023-05-05T02:32:05.568Z,90.20
2023-05-05T02:34:39.891Z,90.30
2023-05-05T02:37:20.311Z,90.10
2023-05-05T02:39:59.193Z,90.50
2023-05-05T02:42:36.520Z,90.80
2023-05-05T02:45:12.606Z,90.80
2023-05-05T02:47:42.965Z,91.10
2023-05-05T02:50:11.819Z,91.10
2023-05-05T02:52:48.671Z,91.40
2023-05-05T02:55:17.726Z,91.90
2023-05-05T02:58:05.285Z,92.60
2023-05-05T03:00:50.777Z,92.50
2023-05-05T03:03:44.424Z,92.70
2023-05-05T03:06:27.516Z,94.50
2023-05-05T03:09:13.212Z,94.60
2023-05-05T03:12:05.577Z,93.50
2023-05-05T03:14:46.228Z,93.90
2023-05-05T03:17:20.476Z,93.30
2023-05-05T03:19:49.364Z,93.40
2023-05-05T03:22:16.885Z,93.30
2023-05-05T03:24:55.809Z,93.20
2023-05-05T03:27:27.493Z,94.00
2023-05-05T03:29:58.069Z,93.80
2023-05-05T03:32:27.147Z,94.00
2023-05-05T03:34:55.639Z,94.20
2023-05-05T03:37:27.605Z,94.40
2023-05-05T03:39:54.792Z,94.50
2023-05-05T03:42:22.584Z,94.70
2023-05-05T03:44:53.387Z,94.90
2023-05-05T03:47:24.570Z,95.90
2023-05-05T03:49:52.535Z,95.30
2023-05-05T03:52:22.790Z,96.10
2023-05-05T03:54:50.035Z,95.60
2023-05-05T03:57:17.062Z,95.90
2023-05-05T03:59:44.330Z,96.60
2023-05-05T04:02:11.527Z,96.10
2023-05-05T04:04:38.645Z,96.30
2023-05-05T04:07:06.159Z,96.40
2023-05-05T04:09:33.632Z,96.70
2023-05-05T04:12:01.541Z,96.80
2023-05-05T04:14:30.115Z,96.80
2023-05-05T04:16:57.995Z,96.90
2023-05-05T04:19:25.031Z,97.20
2023-05-05T04:21:52.181Z,97.70
2023-05-05T04:24:24.917Z,97.30
2023-05-05T04:26:54.206Z,97.50
2023-05-05T04:29:21.904Z,97.50
2023-05-05T04:31:50.018Z,98.00
2023-05-05T04:34:17.239Z,97.70
2023-05-05T04:36:47.238Z,98.20
2023-05-05T04:39:14.500Z,98.00
2023-05-05T04:41:41.645Z,98.40
2023-05-05T04:44:09.922Z,98.10
2023-05-05T04:46:37.011Z,98.50
2023-05-05T04:49:05.785Z,98.30
2023-05-05T04:51:33.950Z,99.10
2023-05-05T04:54:04.364Z,98.60
2023-05-05T04:56:32.539Z,98.70
2023-05-05T04:58:59.657Z,98.80
2023-05-05T05:01:26.994Z,98.70
2023-05-05T05:03:54.234Z,99.00
2023-05-05T05:06:21.303Z,99.30
2023-05-05T05:08:48.444Z,98.70
2023-05-05T05:11:15.520Z,98.90
2023-05-05T05:13:42.975Z,99.60
2023-05-05T05:16:10.511Z,99.30
2023-05-05T05:18:37.692Z,99.10
2023-05-05T05:21:04.878Z,98.40
2023-05-05T05:23:32.000Z,99.20
2023-05-05T05:25:59.455Z,99.30
2023-05-05T05:28:26.903Z,99.30
2023-05-05T05:30:58.407Z,99.30
2023-05-05T05:33:25.927Z,99.40
2023-05-05T05:35:57.623Z,99.60
2023-05-05T05:38:25.960Z,99.60
2023-05-05T05:40:55.892Z,99.90
2023-05-05T05:43:24.339Z,99.90
2023-05-05T05:45:52.068Z,99.90
2023-05-05T05:48:21.449Z,99.90
2023-05-05T05:50:48.604Z,99.90
2023-05-05T05:53:15.651Z,99.90
2023-05-05T05:55:46.119Z,99.90
2023-05-05T05:58:14.517Z,99.90
2023-05-05T06:00:42.097Z,99.90
2023-05-05T06:03:10.850Z,99.90
2023-05-05T06:05:39.624Z,99.90
2023-05-05T06:08:07.047Z,99.90
2023-05-05T06:10:39.864Z,99.90
2023-05-05T06:13:11.375Z,99.90
2023-05-05T06:15:42.593Z,99.90
2023-05-05T06:18:12.045Z,99.90
2023-05-05T06:20:39.235Z,99.80
2023-05-05T06:23:06.930Z,99.60
2023-05-05T06:25:37.696Z,99.60
2023-05-05T06:28:05.796Z,99.30
2023-05-05T06:30:33.702Z,99.20
2023-05-05T06:33:00.847Z,98.90
2023-05-05T06:35:27.912Z,98.80
2023-05-05T06:37:54.970Z,98.60
2023-05-05T06:40:21.965Z,98.40
2023-05-05T06:42:48.952Z,98.20
2023-05-05T06:45:21.858Z,98.00
2023-05-05T06:47:49.351Z,97.80
2023-05-05T06:50:16.673Z,97.60
2023-05-05T06:52:45.277Z,97.40
2023-05-05T06:55:12.398Z,97.10
2023-05-05T06:57:39.514Z,96.80
2023-05-05T07:00:11.284Z,96.70
2023-05-05T07:02:38.958Z,96.10
2023-05-05T07:05:06.676Z,96.30
2023-05-05T07:07:33.881Z,96.20
2023-05-05T07:10:01.156Z,95.90
2023-05-05T07:12:33.721Z,95.60
2023-05-05T07:15:09.311Z,95.40
2023-05-05T07:17:42.861Z,95.60
2023-05-05T07:20:12.124Z,95.40
2023-05-05T07:22:39.457Z,95.20
2023-05-05T07:25:07.586Z,94.90
2023-05-05T07:27:39.183Z,94.60
2023-05-05T07:30:11.259Z,94.30
2023-05-05T07:32:40.623Z,93.90
2023-05-05T07:35:08.324Z,93.60
2023-05-05T07:37:35.752Z,93.20
2023-05-05T07:40:03.909Z,93.20
2023-05-05T07:42:31.173Z,93.10
2023-05-05T07:44:58.365Z,93.00
2023-05-05T07:47:25.566Z,93.10
2023-05-05T07:49:55.292Z,93.00
2023-05-05T07:52:33.205Z,93.10
2023-05-05T07:55:10.536Z,92.70
2023-05-05T07:57:40.378Z,92.80
2023-05-05T08:00:09.355Z,92.30
2023-05-05T08:02:41.371Z,92.40
2023-05-05T08:05:09.212Z,91.70
2023-05-05T08:07:40.914Z,91.40
2023-05-05T08:10:12.158Z,91.10
2023-05-05T08:12:40.178Z,90.60
2023-05-05T08:15:08.253Z,90.60
2023-05-05T08:17:52.095Z,90.30
2023-05-05T08:20:21.276Z,89.00
2023-05-05T08:22:50.366Z,90.10
2023-05-05T08:25:20.452Z,89.70
2023-05-05T08:27:47.479Z,89.20
2023-05-05T08:30:16.611Z,88.40
2023-05-05T08:32:45.676Z,87.90
2023-05-05T08:35:13.135Z,87.20
2023-05-05T08:37:40.489Z,86.30
2023-05-05T08:40:11.768Z,84.40
2023-05-05T08:42:39.596Z,83.00
2023-05-05T08:45:11.716Z,82.10
2023-05-05T08:47:39.696Z,81.50
2023-05-05T08:50:11.204Z,81.10
2023-05-05T08:52:45.353Z,80.10
2023-05-05T08:55:18.092Z,79.10
2023-05-05T08:57:52.473Z,79.10
2023-05-05T09:00:21.578Z,76.90
2023-05-05T09:02:49.793Z,77.00
2023-05-05T09:05:19.523Z,76.60
2023-05-05T09:07:47.308Z,76.00
2023-05-05T09:10:14.757Z,76.10
2023-05-05T09:12:42.496Z,75.90
2023-05-05T09:15:12.238Z,74.80
2023-05-05T09:17:40.678Z,74.10
2023-05-05T09:20:09.869Z,73.30
2023-05-05T09:22:45.530Z,72.60
2023-05-05T09:25:16.264Z,71.90
2023-05-05T09:27:47.048Z,71.90
2023-05-05T09:30:32.154Z,72.40
2023-05-05T09:33:00.561Z,70.50
2023-05-05T09:35:27.891Z,71.20
2023-05-05T09:37:55.449Z,70.70
2023-05-05T09:40:22.783Z,70.60
2023-05-05T09:43:02.868Z,71.60
2023-05-05T09:45:30.122Z,70.70
2023-05-05T09:48:00.362Z,71.50
2023-05-05T09:50:31.171Z,72.20
2023-05-05T09:53:02.221Z,72.30
2023-05-05T09:55:33.702Z,71.70
2023-05-05T09:58:23.595Z,71.60
2023-05-05T10:00:54.194Z,71.40
2023-05-05T10:03:21.899Z,71.90
2023-05-05T10:05:52.012Z,72.70
2023-05-05T10:08:23.025Z,73.30
2023-05-05T10:10:57.338Z,73.00
2023-05-05T10:13:25.356Z,73.50
2023-05-05T10:15:58.954Z,73.40
2023-05-05T10:18:28.474Z,74.00
2023-05-05T10:21:04.194Z,74.60
2023-05-05T10:23:54.337Z,76.10
2023-05-05T10:26:26.184Z,76.40
2023-05-05T10:29:04.077Z,78.00
2023-05-05T10:31:49.465Z,77.90
2023-05-05T10:34:42.335Z,78.00
2023-05-05T10:37:11.585Z,78.40
2023-05-05T10:39:39.527Z,78.40
2023-05-05T10:42:08.730Z,78.20
2023-05-05T10:44:39.123Z,78.00
2023-05-05T10:47:07.955Z,79.60
2023-05-05T10:49:56.372Z,80.20
2023-05-05T10:53:03.208Z,81.70
2023-05-05T10:56:04.717Z,84.70
2023-05-05T10:58:51.036Z,83.70
2023-05-05T11:01:34.136Z,83.40
2023-05-05T11:04:22.745Z,85.50
2023-05-05T11:07:09.822Z,90.10
2023-05-05T11:10:04.238Z,91.50
2023-05-05T11:12:45.899Z,92.20
2023-05-05T11:15:28.240Z,92.20
2023-05-05T11:18:07.515Z,94.30
2023-05-05T11:20:35.970Z,94.50
2023-05-05T11:23:03.232Z,94.90
2023-05-05T11:25:36.738Z,95.50
2023-05-05T11:28:11.123Z,96.50
2023-05-05T11:31:02.212Z,97.20
2023-05-05T11:33:38.205Z,98.60
2023-05-05T11:36:08.009Z,98.60
2023-05-05T11:39:20.098Z,98.70
2023-05-05T11:42:26.111Z,99.20
2023-05-05T11:44:55.587Z,99.90
2023-05-05T11:47:27.960Z,99.90
2023-05-05T11:49:57.660Z,99.90
2023-05-05T11:52:26.396Z,99.90
2023-05-05T11:54:54.029Z,99.90
2023-05-05T11:57:29.427Z,99.90
2023-05-05T12:00:04.350Z,99.90
2023-05-05T12:02:34.528Z,99.90
2023-05-05T12:05:03.699Z,99.90
2023-05-05T12:07:33.445Z,99.90
2023-05-05T12:10:01.172Z,99.90
2023-05-05T12:12:40.000Z,99.90
2023-05-05T12:15:10.995Z,99.90
2023-05-05T12:17:46.037Z,99.90
2023-05-05T12:20:13.768Z,99.90
2023-05-05T12:22:41.595Z,99.90
2023-05-05T12:25:09.682Z,99.90
2023-05-05T12:27:37.092Z,99.90
2023-05-05T12:30:17.498Z,99.90
2023-05-05T12:33:06.961Z,99.90
2023-05-05T12:35:34.846Z,99.90
2023-05-05T12:38:02.048Z,99.90
2023-05-05T12:40:52.943Z,99.90
2023-05-05T12:43:34.161Z,99.90
2023-05-05T12:46:06.501Z,99.90
2023-05-05T12:48:37.976Z,99.90
2023-05-05T12:51:23.154Z,99.90
2023-05-05T12:54:12.652Z,99.90
2023-05-05T12:56:45.703Z,99.90
2023-05-05T12:59:30.004Z,99.90
2023-05-05T13:02:02.635Z,99.90
2023-05-05T13:04:30.189Z,99.90
2023-05-05T13:07:18.058Z,99.90
2023-05-05T13:09:50.171Z,99.90
2023-05-05T13:12:21.761Z,99.90
2023-05-05T13:14:53.777Z,99.90
2023-05-05T13:17:20.903Z,99.90
2023-05-05T13:19:47.947Z,99.90
2023-05-05T13:22:17.789Z,99.90
2023-05-05T13:24:52.469Z,99.90
2023-05-05T13:27:20.810Z,99.90
2023-05-05T13:29:48.771Z,99.90
2023-05-05T13:32:17.035Z,99.90
2023-05-05T13:34:44.424Z,99.90
2023-05-05T13:37:11.490Z,99.90
2023-05-05T13:39:38.450Z,99.90
2023-05-05T13:42:05.479Z,99.90
2023-05-05T13:44:32.673Z,99.90
2023-05-05T13:46:59.684Z,99.90
2023-05-05T13:49:26.998Z,99.90
2023-05-05T13:51:55.248Z,99.90
2023-05-05T13:54:22.424Z,99.90
2023-05-05T13:56:49.441Z,99.90
2023-05-05T13:59:16.933Z,99.90
2023-05-05T14:01:45.257Z,99.90
2023-05-05T14:04:12.431Z,99.90
2023-05-05T14:06:39.786Z,99.90
2023-05-05T14:09:08.309Z,99.90
2023-05-05T14:11:36.130Z,99.90
2023-05-05T14:14:03.191Z,99.90
2023-05-05T14:16:30.261Z,99.90
2023-05-05T14:19:00.727Z,99.90
2023-05-05T14:21:27.797Z,99.90
2023-05-05T14:23:54.914Z,99.90
2023-05-05T14:26:25.939Z,99.90
2023-05-05T14:28:53.066Z,99.90
2023-05-05T14:31:20.203Z,99.90
2023-05-05T14:33:47.468Z,99.90
2023-05-05T14:36:18.175Z,99.90
2023-05-05T14:38:48.360Z,99.90
2023-05-05T14:41:16.123Z,99.90
2023-05-05T14:43:45.761Z,99.90
2023-05-05T14:46:12.873Z,99.90
2023-05-05T14:48:40.998Z,99.90
2023-05-05T14:51:11.428Z,99.90
2023-05-05T14:53:38.666Z,99.90
2023-05-05T14:56:08.140Z,99.90
2023-05-05T14:58:37.958Z,99.90
2023-05-05T15:01:05.806Z,99.90
2023-05-05T15:03:34.456Z,99.90
2023-05-05T15:06:01.882Z,99.90
2023-05-05T15:08:36.612Z,99.90
2023-05-05T15:11:07.694Z,99.90
2023-05-05T15:13:35.862Z,99.90
2023-05-05T15:16:03.095Z,99.90
2023-05-05T15:18:30.246Z,99.90
2023-05-05T15:20:58.583Z,99.90
2023-05-05T15:23:25.941Z,99.90
2023-05-05T15:25:53.523Z,99.90
2023-05-05T15:28:20.750Z,99.90
2023-05-05T15:30:47.978Z,99.90
2023-05-05T15:33:17.464Z,99.90
2023-05-05T15:35:48.126Z,99.90
2023-05-05T15:38:17.971Z,99.90
2023-05-05T15:40:59.966Z,99.90
2023-05-05T15:43:33.979Z,99.90
2023-05-05T15:46:01.175Z,99.90
2023-05-05T15:48:31.360Z,99.90
2023-05-05T15:50:58.504Z,99.90
2023-05-05T15:53:26.940Z,99.90
2023-05-05T15:55:54.332Z,99.90
2023-05-05T15:58:24.232Z,99.90
2023-05-05T16:00:51.704Z,99.90
2023-05-05T16:03:19.274Z,99.90
2023-05-05T16:05:47.264Z,99.90
2023-05-05T16:08:18.828Z,99.90
2023-05-05T16:10:49.933Z,99.90
2023-05-05T16:13:18.406Z,99.90
2023-05-05T16:15:47.292Z,99.90
2023-05-05T16:18:15.174Z,99.90
2023-05-05T16:20:46.036Z,99.90
2023-05-05T16:23:16.173Z,99.90
2023-05-05T16:25:45.931Z,99.90
2023-05-05T16:28:13.280Z,99.90
2023-05-05T16:30:42.817Z,99.90
2023-05-05T16:33:12.957Z,99.90
2023-05-05T16:35:40.117Z,99.90
2023-05-05T16:38:07.913Z,99.90
2023-05-05T16:40:37.717Z,99.90
2023-05-05T16:43:04.882Z,99.90
2023-05-05T16:45:32.256Z,99.90
2023-05-05T16:47:59.628Z,99.90
2023-05-05T16:50:26.892Z,99.90
2023-05-05T16:53:02.925Z,99.90
2023-05-05T16:55:30.383Z,99.90
2023-05-05T16:58:04.316Z,99.90
2023-05-05T17:00:31.790Z,99.90
2023-05-05T17:02:58.985Z,99.90
2023-05-05T17:05:27.123Z,99.90
2023-05-05T17:08:00.068Z,99.90
2023-05-05T17:10:27.489Z,99.90
2023-05-05T17:12:54.665Z,99.90
2023-05-05T17:15:22.619Z,99.90
2023-05-05T17:17:54.306Z,99.20
2023-05-05T17:20:21.730Z,98.90
2023-05-05T17:22:48.720Z,99.00
2023-05-05T17:25:16.899Z,98.50
2023-05-05T17:27:46.308Z,98.40
2023-05-05T17:30:19.391Z,98.70
2023-05-05T17:32:47.997Z,98.60
2023-05-05T17:35:17.145Z,98.60
2023-05-05T17:37:47.506Z,98.00
2023-05-05T17:40:17.152Z,98.40
2023-05-05T17:42:45.913Z,98.30
2023-05-05T17:45:16.084Z,98.40
2023-05-05T17:47:45.778Z,98.50
2023-05-05T17:50:12.949Z,98.60
2023-05-05T17:52:48.360Z,98.50
2023-05-05T17:55:15.583Z,99.20
2023-05-05T17:57:42.825Z,98.90
2023-05-05T18:00:12.567Z,99.50
2023-05-05T18:02:40.049Z,99.40
2023-05-05T18:05:08.432Z,99.90
2023-05-05T18:07:35.667Z,99.40
2023-05-05T18:10:02.923Z,99.90
2023-05-05T18:12:31.016Z,99.90
2023-05-05T18:14:58.714Z,99.90
2023-05-05T18:17:26.304Z,99.90
2023-05-05T18:19:53.645Z,99.90
2023-05-05T18:22:21.805Z,99.90
2023-05-05T18:24:49.073Z,99.90
2023-05-05T18:27:16.290Z,99.90
2023-05-05T18:29:50.807Z,99.90
2023-05-05T18:32:18.120Z,99.90
2023-05-05T18:34:51.543Z,99.90
2023-05-05T18:37:18.983Z,99.90
2023-05-05T18:39:49.905Z,99.90
2023-05-05T18:42:27.486Z,99.90
2023-05-05T18:44:54.887Z,99.90
2023-05-05T18:47:22.677Z,99.90
2023-05-05T18:49:51.828Z,99.90
2023-05-05T18:52:21.947Z,99.90
2023-05-05T18:54:49.321Z,99.90
2023-05-05T18:57:20.538Z,99.90
2023-05-05T18:59:47.731Z,99.90
2023-05-05T19:02:18.172Z,99.90
2023-05-05T19:04:46.803Z,99.90
2023-05-05T19:07:21.137Z,99.90
2023-05-05T19:09:59.177Z,99.90
2023-05-05T19:12:27.612Z,99.90
2023-05-05T19:14:57.587Z,99.90
2023-05-05T19:17:24.968Z,99.90
2023-05-05T19:19:52.157Z,99.90
2023-05-05T19:22:23.084Z,99.90
2023-05-05T19:24:50.265Z,99.90
2023-05-05T19:27:17.528Z,99.90
2023-05-05T19:29:49.594Z,99.90
2023-05-05T19:32:16.952Z,99.90
2023-05-05T19:34:46.106Z,99.90
2023-05-05T19:37:13.462Z,99.90
2023-05-05T19:39:45.954Z,99.90
2023-05-05T19:42:15.092Z,99.90
2023-05-05T19:44:44.386Z,99.90
2023-05-05T19:47:14.684Z,99.90
2023-05-05T19:49:50.658Z,99.90
2023-05-05T19:52:18.058Z,99.90
2023-05-05T19:54:46.958Z,99.90
2023-05-05T19:57:15.007Z,99.90
2023-05-05T19:59:50.135Z,99.90
2023-05-05T20:02:17.628Z,99.90
2023-05-05T20:04:48.172Z,99.90
2023-05-05T20:07:18.188Z,99.90
2023-05-05T20:09:52.739Z,99.90
2023-05-05T20:12:28.022Z,99.90
2023-05-05T20:15:02.197Z,99.90
2023-05-05T20:17:39.550Z,99.90
2023-05-05T20:20:10.479Z,99.90
2023-05-05T20:22:41.617Z,99.90
2023-05-05T20:25:19.230Z,99.90
2023-05-05T20:27:51.455Z,99.90
2023-05-05T20:30:21.388Z,99.90
2023-05-05T20:32:53.810Z,99.90
2023-05-05T20:35:26.716Z,99.90
2023-05-05T20:37:59.024Z,99.90
2023-05-05T20:40:33.826Z,99.90
2023-05-05T20:43:01.531Z,99.90
2023-05-05T20:45:32.107Z,99.90
2023-05-05T20:48:03.214Z,99.90
2023-05-05T20:50:33.518Z,99.90
2023-05-05T20:53:01.031Z,99.90
2023-05-05T20:55:30.098Z,99.90
2023-05-05T20:58:03.670Z,99.90
2023-05-05T21:00:49.571Z,99.90
2023-05-05T21:03:21.084Z,99.90
2023-05-05T21:05:50.087Z,99.90
2023-05-05T21:08:33.066Z,99.90
2023-05-05T21:11:01.857Z,99.90
2023-05-05T21:13:31.188Z,99.90
2023-05-05T21:16:02.233Z,99.90
2023-05-05T21:18:40.205Z,99.90
2023-05-05T21:21:41.003Z,99.90
2023-05-05T21:24:14.917Z,99.90
2023-05-05T21:26:48.321Z,99.90
2023-05-05T21:29:15.597Z,99.90
2023-05-05T21:31:45.999Z,99.90
2023-05-05T21:34:13.136Z,99.90
2023-05-05T21:36:40.465Z,99.90
2023-05-05T21:39:15.308Z,99.90
2023-05-05T21:41:50.465Z,99.90
2023-05-05T21:44:17.748Z,99.90
2023-05-05T21:46:47.750Z,99.90
2023-05-05T21:49:16.755Z,99.90
2023-05-05T21:51:47.531Z,99.90
2023-05-05T21:54:14.744Z,99.90
2023-05-05T21:56:41.829Z,99.90
2023-05-05T21:59:08.944Z,99.90
2023-05-05T22:01:39.121Z,99.90
2023-05-05T22:04:07.511Z,99.90
2023-05-05T22:06:34.931Z,99.90
2023-05-05T22:09:02.168Z,99.90
2023-05-05T22:11:29.404Z,99.90
2023-05-05T22:13:59.932Z,99.90
2023-05-05T22:16:27.372Z,99.90
2023-05-05T22:18:57.911Z,99.90
2023-05-05T22:21:27.620Z,99.90
2023-05-05T22:23:54.737Z,99.90
2023-05-05T22:26:21.748Z,99.90
2023-05-05T22:28:48.786Z,99.90
2023-05-05T22:31:23.220Z,99.90
2023-05-05T22:33:50.528Z,99.90
2023-05-05T22:36:17.619Z,99.90
2023-05-05T22:38:50.638Z,99.90
2023-05-05T22:41:21.339Z,99.90
2023-05-05T22:43:49.382Z,99.90
2023-05-05T22:46:17.200Z,99.90
2023-05-05T22:48:50.155Z,99.90
2023-05-05T22:51:20.449Z,99.90
2023-05-05T22:53:47.903Z,99.90
2023-05-05T22:56:15.155Z,99.90
2023-05-05T22:58:42.346Z,99.90
2023-05-05T23:01:09.958Z,99.90
2023-05-05T23:03:37.453Z,99.90
2023-05-05T23:06:04.687Z,99.90
2023-05-05T23:08:31.695Z,99.90
2023-05-05T23:10:58.889Z,99.90
2023-05-05T23:13:26.501Z,99.90
2023-05-05T23:15:53.767Z,99.90
2023-05-05T23:18:20.961Z,99.90
2023-05-05T23:20:48.111Z,99.90
2023-05-05T23:23:15.069Z,99.90
2023-05-05T23:25:42.227Z,99.90
2023-05-05T23:28:09.972Z,99.90
2023-05-05T23:30:37.127Z,99.90
2023-05-05T23:33:04.608Z,99.90
2023-05-05T23:35:34.982Z,99.90
2023-05-05T23:38:02.102Z,99.90
2023-05-05T23:40:31.432Z,99.90
2023-05-05T23:42:59.669Z,99.90
2023-05-05T23:45:26.760Z,99.90
2023-05-05T23:47:54.062Z,99.90
2023-05-05T23:50:21.355Z,99.90
2023-05-05T23:52:48.404Z,99.90
2023-05-05T23:55:15.356Z,99.90
2023-05-05T23:57:42.720Z,99.90
